Station: EHBK - 15/10/2018 15:55Z (il y a 16 minutes)
EHBK 151555Z AUTO 24005KT 210V290 9999 NSC 23/10 Q1013 NOSIG
Vent du 240º - 5 kt (vent de direction variable de 210º à 290º)
Visibilité > 10 km
Pas de nuages significatifs
Température: +23ºC - Point de rosée: +10ºC - QNH: 1013 hPa
Pas de changement significatif prévu dans les 2 heures qui suivent l'observation